Redwood City, CA (94064)

12:33 AM PST del 31 Gennaio 2015 (GMT -0800)
Sterling Heights | Change Station
CLOSE
Current Station
Stazione meteo personale
Location: Redwood City, CA
Altitudine: 134 ft
Stazioni meteo nelle vicinanze

Alt. 134 ft 37.46 °N, 122.25 °W | Updated 4 seconds ago

Parzialmente nuvoloso
Parzialmente nuvoloso
47.1 °F
Sembra 47 °F
N
0.0
Vento Variabile Vento da Ovest
Gusts 0.0 mph

Oggi
Massima -- | Minima -- °F
--% Possibilità di precip.
Ieri
Massima -- | Minima -- °F
Precip. -- in
7:13 AM 5:32 PM
Gobba a ponente, 88% visible
Pressione 29.94 in
Visibilità 10.0 miglia
Nuvole Coperto 300 ft
Raffreddamento del vento 47 °F
Punto di rugiada 45 °F
Umidità 92%
Piovosità 0.00 in
Spessore del manto nevoso Non disponibile.
Raggi UV 0 fuori da 12
Polline 5.30 fuori da 12
Qualità dell'aria Non disponibile.
Flu Activity Non disponibile.
METAR KSQL 310810Z AUTO 28003KT 10SM OVC003 10/08 A2994 RMK AO2

More Conditions Fewer Conditions

Pressione 29.94 in
Visibilità 10.0 miglia
Nuvole Coperto 300 ft
Raffreddamento del vento 47 °F
Punto di rugiada 45 °F
Umidità 92%
Piovosità 0.00 in
Spessore del manto nevoso Non disponibile.
Raggi UV 0 fuori da 12
Polline 5.30 fuori da 12
Qualità dell'aria Non disponibile.
Flu Activity Non disponibile.
METAR KSQL 310810Z AUTO 28003KT 10SM OVC003 10/08 A2994 RMK AO2

More Conditions Fewer Conditions

10-Day Weather Forecast

Almanac

Astronomia

Jan. 31, 2015 Alba Tramonto
Ora attuale
Crepuscolo civile
Crepuscolo nautico
Crepuscolo astronomico
Luna
Estensione della luce visibile
Lunghezza del giorno
Tomorrow will be .
, % of the Moon is Illuminated

Gli estremi di oggi

State Highs State Lows

Community

WunderPhotos

Upload Photos

1,792,021 foto caricate!

WunderBlogs® & News

Nearby

Qualità dell'aria

  Qualità dell'aria Indice AQ Inquinante
Not available.

Profondità neve

Stazione Profondità Altitudine

Attività sismica

Città  Distanza Mag. Data & Ora
Minimo Magnitudo Mostrato è 2.5.

Temperature delle acque costiere

Località Temperatura

Stazioni meteo nelle vicinanze